sensor_id;sensor_type;location;lat;lon;timestamp;temperature;humidity
13074;DHT22;6603;47.066;15.396;2023-04-01T00:00:59;7.30;99.90
13074;DHT22;6603;47.066;15.396;2023-04-01T00:03:26;7.30;99.90
13074;DHT22;6603;47.066;15.396;2023-04-01T00:05:53;7.10;99.90
13074;DHT22;6603;47.066;15.396;2023-04-01T00:08:20;7.10;99.90
13074;DHT22;6603;47.066;15.396;2023-04-01T00:10:46;7.10;99.90
13074;DHT22;6603;47.066;15.396;2023-04-01T00:13:12;7.00;99.90
13074;DHT22;6603;47.066;15.396;2023-04-01T00:15:39;7.00;99.90
13074;DHT22;6603;47.066;15.396;2023-04-01T00:18:05;7.10;99.90
13074;DHT22;6603;47.066;15.396;2023-04-01T00:20:32;7.10;99.90
13074;DHT22;6603;47.066;15.396;2023-04-01T00:22:58;7.10;99.90
13074;DHT22;6603;47.066;15.396;2023-04-01T00:25:24;7.10;99.90
13074;DHT22;6603;47.066;15.396;2023-04-01T00:27:50;7.00;99.90
13074;DHT22;6603;47.066;15.396;2023-04-01T00:30:17;7.10;99.90
13074;DHT22;6603;47.066;15.396;2023-04-01T00:32:44;7.10;99.90
13074;DHT22;6603;47.066;15.396;2023-04-01T00:35:10;7.10;99.90
13074;DHT22;6603;47.066;15.396;2023-04-01T00:37:38;7.10;99.90
13074;DHT22;6603;47.066;15.396;2023-04-01T00:40:11;7.10;99.90
13074;DHT22;6603;47.066;15.396;2023-04-01T00:42:46;7.00;99.90
13074;DHT22;6603;47.066;15.396;2023-04-01T00:47:53;7.00;99.90
13074;DHT22;6603;47.066;15.396;2023-04-01T00:50:20;6.90;99.90
13074;DHT22;6603;47.066;15.396;2023-04-01T00:52:47;6.90;99.90
13074;DHT22;6603;47.066;15.396;2023-04-01T00:55:14;7.00;99.90
13074;DHT22;6603;47.066;15.396;2023-04-01T00:57:42;7.00;99.90
13074;DHT22;6603;47.066;15.396;2023-04-01T01:00:11;7.00;99.90
13074;DHT22;6603;47.066;15.396;2023-04-01T01:02:41;6.90;99.90
13074;DHT22;6603;47.066;15.396;2023-04-01T01:05:12;6.90;99.90
13074;DHT22;6603;47.066;15.396;2023-04-01T01:08:07;6.80;99.90
13074;DHT22;6603;47.066;15.396;2023-04-01T01:10:38;6.80;99.90
13074;DHT22;6603;47.066;15.396;2023-04-01T01:13:19;6.70;99.90
13074;DHT22;6603;47.066;15.396;2023-04-01T01:27:17;6.60;99.90
13074;DHT22;6603;47.066;15.396;2023-04-01T01:32:38;6.70;99.90
13074;DHT22;6603;47.066;15.396;2023-04-01T01:37:46;6.60;99.90
13074;DHT22;6603;47.066;15.396;2023-04-01T01:40:13;6.60;99.90
13074;DHT22;6603;47.066;15.396;2023-04-01T01:42:45;6.50;99.90
13074;DHT22;6603;47.066;15.396;2023-04-01T01:45:15;6.50;99.90
13074;DHT22;6603;47.066;15.396;2023-04-01T01:47:44;6.50;99.90
13074;DHT22;6603;47.066;15.396;2023-04-01T01:50:12;6.50;99.90
13074;DHT22;6603;47.066;15.396;2023-04-01T01:52:39;6.40;99.90
13074;DHT22;6603;47.066;15.396;2023-04-01T01:55:33;6.40;99.90
13074;DHT22;6603;47.066;15.396;2023-04-01T01:58:09;6.50;99.90
13074;DHT22;6603;47.066;15.396;2023-04-01T02:00:38;6.50;99.90
13074;DHT22;6603;47.066;15.396;2023-04-01T02:03:04;6.50;99.90
13074;DHT22;6603;47.066;15.396;2023-04-01T02:05:31;6.50;99.90
13074;DHT22;6603;47.066;15.396;2023-04-01T02:08:03;6.50;99.90
13074;DHT22;6603;47.066;15.396;2023-04-01T02:10:35;6.40;99.90
13074;DHT22;6603;47.066;15.396;2023-04-01T02:13:08;6.40;99.90
13074;DHT22;6603;47.066;15.396;2023-04-01T02:15:40;6.30;99.90
13074;DHT22;6603;47.066;15.396;2023-04-01T02:18:08;6.30;99.90
13074;DHT22;6603;47.066;15.396;2023-04-01T02:20:36;6.30;99.90
13074;DHT22;6603;47.066;15.396;2023-04-01T02:23:04;6.30;99.90
13074;DHT22;6603;47.066;15.396;2023-04-01T02:25:35;6.20;99.90
13074;DHT22;6603;47.066;15.396;2023-04-01T02:28:04;6.20;99.90
13074;DHT22;6603;47.066;15.396;2023-04-01T02:30:34;6.20;99.90
13074;DHT22;6603;47.066;15.396;2023-04-01T02:33:01;6.20;99.90
13074;DHT22;6603;47.066;15.396;2023-04-01T02:35:29;6.10;99.90
13074;DHT22;6603;47.066;15.396;2023-04-01T02:37:55;6.10;99.90
13074;DHT22;6603;47.066;15.396;2023-04-01T02:40:21;6.10;99.90
13074;DHT22;6603;47.066;15.396;2023-04-01T02:42:47;6.20;99.90
13074;DHT22;6603;47.066;15.396;2023-04-01T02:45:14;6.20;99.90
13074;DHT22;6603;47.066;15.396;2023-04-01T02:47:40;6.20;99.90
13074;DHT22;6603;47.066;15.396;2023-04-01T02:50:07;6.10;99.90
13074;DHT22;6603;47.066;15.396;2023-04-01T02:52:34;6.10;99.90
13074;DHT22;6603;47.066;15.396;2023-04-01T02:55:00;6.10;99.90
13074;DHT22;6603;47.066;15.396;2023-04-01T02:57:26;6.00;99.90
13074;DHT22;6603;47.066;15.396;2023-04-01T02:59:52;6.00;99.90
13074;DHT22;6603;47.066;15.396;2023-04-01T03:02:18;6.00;99.90
13074;DHT22;6603;47.066;15.396;2023-04-01T03:04:44;6.00;99.90
13074;DHT22;6603;47.066;15.396;2023-04-01T03:07:10;6.00;99.90
13074;DHT22;6603;47.066;15.396;2023-04-01T03:09:37;6.10;99.90
13074;DHT22;6603;47.066;15.396;2023-04-01T03:12:03;6.00;99.90
13074;DHT22;6603;47.066;15.396;2023-04-01T03:14:29;5.90;99.90
13074;DHT22;6603;47.066;15.396;2023-04-01T03:16:55;6.10;99.90
13074;DHT22;6603;47.066;15.396;2023-04-01T03:19:21;6.10;99.90
13074;DHT22;6603;47.066;15.396;2023-04-01T03:21:47;6.10;99.90
13074;DHT22;6603;47.066;15.396;2023-04-01T03:24:13;6.10;99.90
13074;DHT22;6603;47.066;15.396;2023-04-01T03:26:39;6.00;99.90
13074;DHT22;6603;47.066;15.396;2023-04-01T03:29:05;6.10;99.90
13074;DHT22;6603;47.066;15.396;2023-04-01T03:31:31;6.00;99.90
13074;DHT22;6603;47.066;15.396;2023-04-01T03:33:57;6.00;99.90
13074;DHT22;6603;47.066;15.396;2023-04-01T03:36:23;5.90;99.90
13074;DHT22;6603;47.066;15.396;2023-04-01T03:38:49;5.90;99.90
13074;DHT22;6603;47.066;15.396;2023-04-01T03:41:16;6.00;99.90
13074;DHT22;6603;47.066;15.396;2023-04-01T03:43:43;6.00;99.90
13074;DHT22;6603;47.066;15.396;2023-04-01T03:46:10;6.00;99.90
13074;DHT22;6603;47.066;15.396;2023-04-01T03:48:36;6.00;99.90
13074;DHT22;6603;47.066;15.396;2023-04-01T03:51:07;6.10;99.90
13074;DHT22;6603;47.066;15.396;2023-04-01T03:53:33;6.00;99.90
13074;DHT22;6603;47.066;15.396;2023-04-01T03:56:04;6.00;99.90
13074;DHT22;6603;47.066;15.396;2023-04-01T03:58:30;6.10;99.90
13074;DHT22;6603;47.066;15.396;2023-04-01T04:00:56;6.10;99.90
13074;DHT22;6603;47.066;15.396;2023-04-01T04:03:21;6.10;99.90
13074;DHT22;6603;47.066;15.396;2023-04-01T04:05:49;6.10;99.90
13074;DHT22;6603;47.066;15.396;2023-04-01T04:08:16;6.10;99.90
13074;DHT22;6603;47.066;15.396;2023-04-01T04:10:42;6.00;99.90
13074;DHT22;6603;47.066;15.396;2023-04-01T04:13:08;6.10;99.90
13074;DHT22;6603;47.066;15.396;2023-04-01T04:15:34;6.00;99.90
13074;DHT22;6603;47.066;15.396;2023-04-01T04:18:00;6.00;99.90
13074;DHT22;6603;47.066;15.396;2023-04-01T04:20:26;6.00;99.90
13074;DHT22;6603;47.066;15.396;2023-04-01T04:22:52;6.00;99.90
13074;DHT22;6603;47.066;15.396;2023-04-01T04:25:18;6.10;99.90
13074;DHT22;6603;47.066;15.396;2023-04-01T04:27:44;6.10;99.90
13074;DHT22;6603;47.066;15.396;2023-04-01T04:30:10;6.10;99.90
13074;DHT22;6603;47.066;15.396;2023-04-01T04:32:36;6.00;99.90
13074;DHT22;6603;47.066;15.396;2023-04-01T04:35:03;5.80;99.90
13074;DHT22;6603;47.066;15.396;2023-04-01T04:37:29;5.80;99.90
13074;DHT22;6603;47.066;15.396;2023-04-01T04:39:55;5.80;99.90
13074;DHT22;6603;47.066;15.396;2023-04-01T04:42:21;5.80;99.90
13074;DHT22;6603;47.066;15.396;2023-04-01T04:44:46;5.80;99.90
13074;DHT22;6603;47.066;15.396;2023-04-01T04:47:12;5.90;99.90
13074;DHT22;6603;47.066;15.396;2023-04-01T04:49:38;5.90;99.90
13074;DHT22;6603;47.066;15.396;2023-04-01T04:52:04;5.90;99.90
13074;DHT22;6603;47.066;15.396;2023-04-01T04:54:30;5.90;99.90
13074;DHT22;6603;47.066;15.396;2023-04-01T04:56:56;5.90;99.90
13074;DHT22;6603;47.066;15.396;2023-04-01T04:59:22;5.90;99.90
13074;DHT22;6603;47.066;15.396;2023-04-01T05:01:48;5.90;99.90
13074;DHT22;6603;47.066;15.396;2023-04-01T05:04:14;5.90;99.90
13074;DHT22;6603;47.066;15.396;2023-04-01T05:06:40;5.90;99.90
13074;DHT22;6603;47.066;15.396;2023-04-01T05:09:05;5.90;99.90
13074;DHT22;6603;47.066;15.396;2023-04-01T05:11:31;6.00;99.90
13074;DHT22;6603;47.066;15.396;2023-04-01T05:13:57;6.10;99.90
13074;DHT22;6603;47.066;15.396;2023-04-01T05:16:23;6.30;99.90
13074;DHT22;6603;47.066;15.396;2023-04-01T05:18:49;6.20;99.90
13074;DHT22;6603;47.066;15.396;2023-04-01T05:21:15;6.10;99.90
13074;DHT22;6603;47.066;15.396;2023-04-01T05:23:42;6.20;99.90
13074;DHT22;6603;47.066;15.396;2023-04-01T05:26:13;6.30;99.90
13074;DHT22;6603;47.066;15.396;2023-04-01T05:28:39;6.30;99.90
13074;DHT22;6603;47.066;15.396;2023-04-01T05:31:07;6.30;99.90
13074;DHT22;6603;47.066;15.396;2023-04-01T05:33:33;6.40;99.90
13074;DHT22;6603;47.066;15.396;2023-04-01T05:36:16;6.50;99.90
13074;DHT22;6603;47.066;15.396;2023-04-01T05:38:42;6.50;99.90
13074;DHT22;6603;47.066;15.396;2023-04-01T05:41:09;6.60;99.90
13074;DHT22;6603;47.066;15.396;2023-04-01T05:43:39;6.60;99.90
13074;DHT22;6603;47.066;15.396;2023-04-01T05:46:05;6.70;99.90
13074;DHT22;6603;47.066;15.396;2023-04-01T05:48:33;6.70;99.90
13074;DHT22;6603;47.066;15.396;2023-04-01T05:51:00;6.70;99.90
13074;DHT22;6603;47.066;15.396;2023-04-01T05:53:26;6.80;99.90
13074;DHT22;6603;47.066;15.396;2023-04-01T05:55:52;6.90;99.90
13074;DHT22;6603;47.066;15.396;2023-04-01T05:58:17;6.90;99.90
13074;DHT22;6603;47.066;15.396;2023-04-01T06:00:43;7.00;99.90
13074;DHT22;6603;47.066;15.396;2023-04-01T06:03:09;7.10;99.90
13074;DHT22;6603;47.066;15.396;2023-04-01T06:05:40;7.20;99.90
13074;DHT22;6603;47.066;15.396;2023-04-01T06:08:11;7.30;99.90
13074;DHT22;6603;47.066;15.396;2023-04-01T06:19:10;7.50;99.90
13074;DHT22;6603;47.066;15.396;2023-04-01T06:25:10;7.60;99.90
13074;DHT22;6603;47.066;15.396;2023-04-01T06:36:07;8.00;99.90
13074;DHT22;6603;47.066;15.396;2023-04-01T06:44:44;8.40;99.90
13074;DHT22;6603;47.066;15.396;2023-04-01T06:47:46;8.20;99.90
13074;DHT22;6603;47.066;15.396;2023-04-01T06:50:28;8.20;99.90
13074;DHT22;6603;47.066;15.396;2023-04-01T06:53:25;8.20;99.90
13074;DHT22;6603;47.066;15.396;2023-04-01T06:56:00;8.30;99.90
13074;DHT22;6603;47.066;15.396;2023-04-01T06:58:55;8.40;99.90
13074;DHT22;6603;47.066;15.396;2023-04-01T07:01:39;8.60;99.90
13074;DHT22;6603;47.066;15.396;2023-04-01T07:04:20;8.40;99.90
13074;DHT22;6603;47.066;15.396;2023-04-01T07:06:56;8.60;99.90
13074;DHT22;6603;47.066;15.396;2023-04-01T07:09:28;8.70;99.90
13074;DHT22;6603;47.066;15.396;2023-04-01T07:12:02;8.80;99.90
13074;DHT22;6603;47.066;15.396;2023-04-01T07:14:32;9.00;99.90
13074;DHT22;6603;47.066;15.396;2023-04-01T07:22:31;9.40;99.90
13074;DHT22;6603;47.066;15.396;2023-04-01T07:25:03;9.40;99.90
13074;DHT22;6603;47.066;15.396;2023-04-01T07:27:30;9.40;99.90
13074;DHT22;6603;47.066;15.396;2023-04-01T07:29:57;9.40;99.90
13074;DHT22;6603;47.066;15.396;2023-04-01T07:32:49;9.40;99.90
13074;DHT22;6603;47.066;15.396;2023-04-01T07:44:01;10.30;56.50
13074;DHT22;6603;47.066;15.396;2023-04-01T07:49:14;10.30;1.00
13074;DHT22;6603;47.066;15.396;2023-04-01T07:52:13;10.70;7.00
13074;DHT22;6603;47.066;15.396;2023-04-01T07:55:03;11.10;1.00
13074;DHT22;6603;47.066;15.396;2023-04-01T08:17:23;13.20;1.00
13074;DHT22;6603;47.066;15.396;2023-04-01T08:20:12;13.20;1.00
13074;DHT22;6603;47.066;15.396;2023-04-01T08:22:50;13.20;1.00
13074;DHT22;6603;47.066;15.396;2023-04-01T08:25:22;13.10;1.00
13074;DHT22;6603;47.066;15.396;2023-04-01T08:30:54;13.10;1.00
13074;DHT22;6603;47.066;15.396;2023-04-01T08:33:28;13.10;1.00
13074;DHT22;6603;47.066;15.396;2023-04-01T08:39:11;13.60;1.00
13074;DHT22;6603;47.066;15.396;2023-04-01T09:46:06;14.60;99.90
13074;DHT22;6603;47.066;15.396;2023-04-01T09:54:25;14.60;1.00
13074;DHT22;6603;47.066;15.396;2023-04-01T09:57:16;14.70;99.90
13074;DHT22;6603;47.066;15.396;2023-04-01T10:08:16;14.20;1.00
13074;DHT22;6603;47.066;15.396;2023-04-01T10:14:15;14.10;23.30
13074;DHT22;6603;47.066;15.396;2023-04-01T10:33:38;14.70;1.00
13074;DHT22;6603;47.066;15.396;2023-04-01T10:41:57;15.10;1.00
13074;DHT22;6603;47.066;15.396;2023-04-01T10:50:38;14.90;1.00
13074;DHT22;6603;47.066;15.396;2023-04-01T11:02:01;14.60;1.00
13074;DHT22;6603;47.066;15.396;2023-04-01T11:13:11;15.20;1.00
13074;DHT22;6603;47.066;15.396;2023-04-01T11:24:49;15.30;1.00
13074;DHT22;6603;47.066;15.396;2023-04-01T11:32:57;15.40;1.00
13074;DHT22;6603;47.066;15.396;2023-04-01T11:38:26;15.40;1.00
13074;DHT22;6603;47.066;15.396;2023-04-01T11:43:49;15.20;1.00
13074;DHT22;6603;47.066;15.396;2023-04-01T11:55:46;15.40;1.00
13074;DHT22;6603;47.066;15.396;2023-04-01T12:09:20;16.00;1.00
13074;DHT22;6603;47.066;15.396;2023-04-01T12:14:54;16.40;1.00
13074;DHT22;6603;47.066;15.396;2023-04-01T12:25:42;16.30;1.00
13074;DHT22;6603;47.066;15.396;2023-04-01T12:29:17;16.30;1.00
13074;DHT22;6603;47.066;15.396;2023-04-01T12:34:52;16.50;1.00
13074;DHT22;6603;47.066;15.396;2023-04-01T12:48:01;16.10;1.00
13074;DHT22;6603;47.066;15.396;2023-04-01T12:56:14;15.40;1.00
13074;DHT22;6603;47.066;15.396;2023-04-01T12:58:49;15.60;1.00
13074;DHT22;6603;47.066;15.396;2023-04-01T13:01:30;16.00;1.00
13074;DHT22;6603;47.066;15.396;2023-04-01T13:09:57;15.90;1.00
13074;DHT22;6603;47.066;15.396;2023-04-01T13:18:28;16.00;1.00
13074;DHT22;6603;47.066;15.396;2023-04-01T13:21:12;15.90;1.00
13074;DHT22;6603;47.066;15.396;2023-04-01T13:29:35;16.00;1.00
13074;DHT22;6603;47.066;15.396;2023-04-01T13:38:39;16.60;1.00
13074;DHT22;6603;47.066;15.396;2023-04-01T13:41:50;16.40;1.00
13074;DHT22;6603;47.066;15.396;2023-04-01T13:44:29;15.90;1.00
13074;DHT22;6603;47.066;15.396;2023-04-01T13:53:03;16.50;1.00
13074;DHT22;6603;47.066;15.396;2023-04-01T13:55:47;16.60;1.00
13074;DHT22;6603;47.066;15.396;2023-04-01T14:01:41;16.60;1.00
13074;DHT22;6603;47.066;15.396;2023-04-01T14:09:36;17.00;1.00
13074;DHT22;6603;47.066;15.396;2023-04-01T14:12:21;16.90;1.00
13074;DHT22;6603;47.066;15.396;2023-04-01T14:20:26;17.10;1.00
13074;DHT22;6603;47.066;15.396;2023-04-01T14:26:10;17.10;1.00
13074;DHT22;6603;47.066;15.396;2023-04-01T14:40:55;17.90;1.00
13074;DHT22;6603;47.066;15.396;2023-04-01T14:43:40;18.00;1.00
13074;DHT22;6603;47.066;15.396;2023-04-01T14:52:13;18.10;1.00
13074;DHT22;6603;47.066;15.396;2023-04-01T14:54:44;18.40;1.00
13074;DHT22;6603;47.066;15.396;2023-04-01T14:57:27;18.60;1.00
13074;DHT22;6603;47.066;15.396;2023-04-01T15:06:20;18.30;1.00
13074;DHT22;6603;47.066;15.396;2023-04-01T15:12:00;18.20;1.00
13074;DHT22;6603;47.066;15.396;2023-04-01T15:17:03;18.10;1.00
13074;DHT22;6603;47.066;15.396;2023-04-01T15:22:48;18.10;1.00
13074;DHT22;6603;47.066;15.396;2023-04-01T15:28:28;18.20;1.00
13074;DHT22;6603;47.066;15.396;2023-04-01T15:41:15;18.30;1.00
13074;DHT22;6603;47.066;15.396;2023-04-01T15:43:47;18.60;1.00
13074;DHT22;6603;47.066;15.396;2023-04-01T15:46:41;18.40;1.00
13074;DHT22;6603;47.066;15.396;2023-04-01T15:51:48;18.50;1.00
13074;DHT22;6603;47.066;15.396;2023-04-01T16:00:12;18.40;1.00
13074;DHT22;6603;47.066;15.396;2023-04-01T16:02:48;18.10;1.00
13074;DHT22;6603;47.066;15.396;2023-04-01T16:05:23;18.00;1.00
13074;DHT22;6603;47.066;15.396;2023-04-01T16:13:30;17.00;1.00
13074;DHT22;6603;47.066;15.396;2023-04-01T16:21:41;16.20;1.00
13074;DHT22;6603;47.066;15.396;2023-04-01T16:46:32;15.20;1.00
13074;DHT22;6603;47.066;15.396;2023-04-01T16:51:46;15.30;1.00
13074;DHT22;6603;47.066;15.396;2023-04-01T16:54:34;15.30;1.00
13074;DHT22;6603;47.066;15.396;2023-04-01T16:59:36;15.00;1.00
13074;DHT22;6603;47.066;15.396;2023-04-01T17:02:16;14.80;1.00
13074;DHT22;6603;47.066;15.396;2023-04-01T17:05:06;14.70;1.00
13074;DHT22;6603;47.066;15.396;2023-04-01T17:21:57;14.20;1.00
13074;DHT22;6603;47.066;15.396;2023-04-01T17:27:20;13.90;1.00
13074;DHT22;6603;47.066;15.396;2023-04-01T17:35:36;13.50;1.00
13074;DHT22;6603;47.066;15.396;2023-04-01T17:41:27;13.60;1.00
13074;DHT22;6603;47.066;15.396;2023-04-01T17:47:05;13.50;1.00
13074;DHT22;6603;47.066;15.396;2023-04-01T17:49:45;13.30;1.00
13074;DHT22;6603;47.066;15.396;2023-04-01T18:09:00;13.10;1.00
13074;DHT22;6603;47.066;15.396;2023-04-01T18:20:12;13.30;1.00
13074;DHT22;6603;47.066;15.396;2023-04-01T18:25:34;13.30;1.00
13074;DHT22;6603;47.066;15.396;2023-04-01T18:30:37;13.20;1.00
13074;DHT22;6603;47.066;15.396;2023-04-01T18:36:38;13.20;1.00
13074;DHT22;6603;47.066;15.396;2023-04-01T18:39:38;13.10;1.00
13074;DHT22;6603;47.066;15.396;2023-04-01T18:48:11;13.00;1.00
13074;DHT22;6603;47.066;15.396;2023-04-01T18:50:55;12.80;1.00
13074;DHT22;6603;47.066;15.396;2023-04-01T18:56:09;12.50;8.80
13074;DHT22;6603;47.066;15.396;2023-04-01T18:58:59;12.50;99.90
13074;DHT22;6603;47.066;15.396;2023-04-01T19:04:37;12.40;47.80
13074;DHT22;6603;47.066;15.396;2023-04-01T19:10:06;11.90;99.90
13074;DHT22;6603;47.066;15.396;2023-04-01T19:17:52;12.10;99.90
13074;DHT22;6603;47.066;15.396;2023-04-01T19:26:05;12.10;99.90
13074;DHT22;6603;47.066;15.396;2023-04-01T19:36:56;11.90;1.00
13074;DHT22;6603;47.066;15.396;2023-04-01T19:51:22;11.60;1.00
13074;DHT22;6603;47.066;15.396;2023-04-01T19:53:55;11.50;1.00
13074;DHT22;6603;47.066;15.396;2023-04-01T19:56:35;11.50;78.90
13074;DHT22;6603;47.066;15.396;2023-04-01T19:59:16;11.30;99.90
13074;DHT22;6603;47.066;15.396;2023-04-01T20:02:28;11.20;1.00
13074;DHT22;6603;47.066;15.396;2023-04-01T20:05:00;10.90;35.50
13074;DHT22;6603;47.066;15.396;2023-04-01T20:07:45;10.80;1.00
13074;DHT22;6603;47.066;15.396;2023-04-01T20:10:25;10.70;1.00
13074;DHT22;6603;47.066;15.396;2023-04-01T20:15:39;10.60;1.00
13074;DHT22;6603;47.066;15.396;2023-04-01T20:20:39;10.50;1.00
13074;DHT22;6603;47.066;15.396;2023-04-01T20:23:23;10.50;1.00
13074;DHT22;6603;47.066;15.396;2023-04-01T20:25:58;10.40;1.00
13074;DHT22;6603;47.066;15.396;2023-04-01T20:28:48;10.30;1.00
13074;DHT22;6603;47.066;15.396;2023-04-01T20:31:41;10.30;1.00
13074;DHT22;6603;47.066;15.396;2023-04-01T20:48:01;10.00;1.00
13074;DHT22;6603;47.066;15.396;2023-04-01T20:50:59;9.90;1.00
13074;DHT22;6603;47.066;15.396;2023-04-01T20:53:35;9.90;1.00
13074;DHT22;6603;47.066;15.396;2023-04-01T20:56:40;10.00;1.00
13074;DHT22;6603;47.066;15.396;2023-04-01T21:16:47;10.00;1.00
13074;DHT22;6603;47.066;15.396;2023-04-01T21:19:28;10.00;1.00
13074;DHT22;6603;47.066;15.396;2023-04-01T21:39:38;10.00;1.00
13074;DHT22;6603;47.066;15.396;2023-04-01T21:43:03;10.00;1.00
13074;DHT22;6603;47.066;15.396;2023-04-01T21:45:36;10.00;1.00
13074;DHT22;6603;47.066;15.396;2023-04-01T21:56:49;10.10;1.00
13074;DHT22;6603;47.066;15.396;2023-04-01T22:07:37;9.90;1.00
13074;DHT22;6603;47.066;15.396;2023-04-01T22:12:45;9.80;1.00
13074;DHT22;6603;47.066;15.396;2023-04-01T22:18:24;9.80;99.90
13074;DHT22;6603;47.066;15.396;2023-04-01T22:32:05;9.80;99.90
13074;DHT22;6603;47.066;15.396;2023-04-01T22:37:17;9.80;99.90
13074;DHT22;6603;47.066;15.396;2023-04-01T22:43:00;9.80;1.00
13074;DHT22;6603;47.066;15.396;2023-04-01T22:54:20;9.70;1.00
13074;DHT22;6603;47.066;15.396;2023-04-01T23:00:03;9.50;1.00
13074;DHT22;6603;47.066;15.396;2023-04-01T23:02:39;9.50;1.00
13074;DHT22;6603;47.066;15.396;2023-04-01T23:05:10;9.50;1.00
13074;DHT22;6603;47.066;15.396;2023-04-01T23:10:29;9.40;1.00
13074;DHT22;6603;47.066;15.396;2023-04-01T23:13:01;9.30;1.00
13074;DHT22;6603;47.066;15.396;2023-04-01T23:15:29;9.20;1.00
13074;DHT22;6603;47.066;15.396;2023-04-01T23:18:21;9.10;1.00
13074;DHT22;6603;47.066;15.396;2023-04-01T23:21:11;9.10;1.00
13074;DHT22;6603;47.066;15.396;2023-04-01T23:28:57;8.70;35.60
13074;DHT22;6603;47.066;15.396;2023-04-01T23:31:32;8.70;30.20
13074;DHT22;6603;47.066;15.396;2023-04-01T23:37:05;8.80;21.40
13074;DHT22;6603;47.066;15.396;2023-04-01T23:39:39;8.60;21.60
13074;DHT22;6603;47.066;15.396;2023-04-01T23:42:07;8.50;60.40
13074;DHT22;6603;47.066;15.396;2023-04-01T23:44:39;8.50;80.60
13074;DHT22;6603;47.066;15.396;2023-04-01T23:47:08;8.60;63.30
13074;DHT22;6603;47.066;15.396;2023-04-01T23:49:43;8.60;48.80
13074;DHT22;6603;47.066;15.396;2023-04-01T23:52:28;8.40;75.40
13074;DHT22;6603;47.066;15.396;2023-04-01T23:55:02;8.40;80.50
13074;DHT22;6603;47.066;15.396;2023-04-01T23:57:32;8.40;76.20
